Terminal Aerodrome Forecast
Issued by NWS

Home | Current Version | Previous Version | Text Only | Print | Product List | Glossary On
Versions: 1 2 3 4 5 6 7 8 9 10 11 12 13 14 15
634
FTUS45 KFGZ 271139
TAFSEZ
TAF
KSEZ 271139Z 2712/2812 VRB05KT P6SM BKN250
     FM271800 26015G25KT P6SM SCT250
     FM280300 27012KT P6SM SCT150=

USA.gov is the U.S. government's official web portal to all federal, state and local government web resources and services.